^^
Station Historical Data
 
Daily Summary for October 19, 2017 Units:  English    Metric   Both
« Previous Day
Next Day »
Daily Weekly Monthly Yearly Custom
  Current: High: Low: Average:
Temperature: 56.3 °F 69.4 °F 38.5 °F 53.3 °F
Dew Point: 50.2 °F 51.4 °F 37.8 °F 45.6 °F
Humidity: 80% 97% 49% 78%
Wind Speed: 0.0mph 9.0mph 0.0mph 1mph
Wind Gust: 2.0mph 12.0mph - -
WindCalm - - SSW
Pressure: 30.13 in 30.30 in 30.11 in -
Precipitation: 0.00 in      
Historical Graphs
 
 
Tabular Data for October 19, 2017
Time Temperature Dew Point Pressure Wind Wind Speed Wind Gust Humidity Rainfall Rate (Hourly) solar Conditions
00:00 44.4 °F 43.2 °F 30.30 in Calm     95% 0.00 in meteobridge W/m2
00:05 44.4 °F 43.2 °F 30.30 in Calm     95% 0.00 in meteobridge W/m2
00:10 44.4 °F 43.3 °F 30.30 in Calm     96% 0.00 in meteobridge W/m2
00:15 44.2 °F 43.2 °F 30.30 in Calm     96% 0.00 in meteobridge W/m2
00:20 44.2 °F 43.2 °F 30.30 in Calm     96% 0.00 in meteobridge W/m2
00:25 44.1 °F 43.0 °F 30.29 in Calm     96% 0.00 in meteobridge W/m2
00:30 44.1 °F 43.0 °F 30.29 in Calm     96% 0.00 in meteobridge W/m2
00:35 43.9 °F 42.8 °F 30.29 in Calm     96% 0.00 in meteobridge W/m2
00:40 43.7 °F 42.6 °F 30.29 in Calm     96% 0.00 in meteobridge W/m2
00:45 43.5 °F 42.4 °F 30.29 in Calm     96% 0.00 in meteobridge W/m2
00:50 43.5 °F 42.4 °F 30.29 in Calm     96% 0.00 in meteobridge W/m2
00:55 43.5 °F 42.4 °F 30.29 in Calm     96% 0.00 in meteobridge W/m2
01:00 43.3 °F 42.3 °F 30.29 in Calm     96% 0.00 in meteobridge W/m2
01:05 43.3 °F 42.3 °F 30.29 in Calm     96% 0.00 in meteobridge W/m2
01:10 43.3 °F 42.3 °F 30.29 in Calm     96% 0.00 in meteobridge W/m2
01:15 43.2 °F 42.1 °F 30.29 in Calm     96% 0.00 in meteobridge W/m2
01:20 43.2 °F 42.1 °F 30.29 in Calm     96% 0.00 in meteobridge W/m2
01:25 43.2 °F 42.1 °F 30.29 in Calm     96% 0.00 in meteobridge W/m2
01:30 43.0 °F 41.9 °F 30.29 in Calm     96% 0.00 in meteobridge W/m2
01:35 42.8 °F 41.7 °F 30.29 in Calm     96% 0.00 in meteobridge W/m2
01:40 42.8 °F 41.7 °F 30.29 in Calm     96% 0.00 in meteobridge W/m2
01:45 42.8 °F 41.7 °F 30.29 in Calm     96% 0.00 in meteobridge W/m2
01:50 43.0 °F 41.9 °F 30.29 in Calm     96% 0.00 in meteobridge W/m2
01:55 43.0 °F 41.9 °F 30.29 in Calm     96% 0.00 in meteobridge W/m2
02:00 43.0 °F 41.9 °F 30.29 in Calm     96% 0.00 in meteobridge W/m2
02:05 43.0 °F 41.9 °F 30.28 in Calm     96% 0.00 in meteobridge W/m2
02:10 43.0 °F 41.9 °F 30.28 in Calm     96% 0.00 in meteobridge W/m2
02:15 43.0 °F 41.9 °F 30.28 in Calm     96% 0.00 in meteobridge W/m2
02:20 43.2 °F 42.1 °F 30.28 in Calm     96% 0.00 in meteobridge W/m2
02:26 43.0 °F 41.9 °F 30.28 in Calm     96% 0.00 in meteobridge W/m2
02:31 43.2 °F 42.1 °F 30.28 in Calm     96% 0.00 in meteobridge W/m2
02:36 43.2 °F 42.1 °F 30.28 in Calm     96% 0.00 in meteobridge W/m2
02:41 43.3 °F 42.3 °F 30.28 in Calm     96% 0.00 in meteobridge W/m2
02:46 43.3 °F 42.3 °F 30.28 in Calm     96% 0.00 in meteobridge W/m2
02:51 43.2 °F 42.1 °F 30.28 in Calm     96% 0.00 in meteobridge W/m2
02:56 43.3 °F 42.3 °F 30.28 in Calm     96% 0.00 in meteobridge W/m2
03:01 43.2 °F 42.1 °F 30.27 in Calm     96% 0.00 in meteobridge W/m2
03:05 43.3 °F 42.3 °F 30.27 in Calm     96% 0.00 in meteobridge W/m2
03:15 43.2 °F 42.4 °F 30.27 in Calm     97% 0.00 in meteobridge W/m2
03:20 43.2 °F 42.4 °F 30.27 in Calm     97% 0.00 in meteobridge W/m2
03:25 43.0 °F 42.3 °F 30.27 in Calm     97% 0.00 in meteobridge W/m2
03:30 42.6 °F 41.9 °F 30.27 in Calm     97% 0.00 in meteobridge W/m2
03:35 42.4 °F 41.4 °F 30.27 in Calm     96% 0.00 in meteobridge W/m2
03:40 42.4 °F 41.7 °F 30.27 in Calm     97% 0.00 in meteobridge W/m2
03:45 42.3 °F 41.5 °F 30.26 in Calm     97% 0.00 in meteobridge W/m2
03:50 42.3 °F 41.5 °F 30.26 in Calm     97% 0.00 in meteobridge W/m2
03:55 42.3 °F 41.5 °F 30.26 in Calm     97% 0.00 in meteobridge W/m2
04:00 42.3 °F 41.5 °F 30.27 in Calm     97% 0.00 in meteobridge W/m2
04:05 42.3 °F 41.5 °F 30.27 in Calm     97% 0.00 in meteobridge W/m2
04:11 42.1 °F 41.4 °F 30.26 in Calm     97% 0.00 in meteobridge W/m2
04:16 41.7 °F 41.0 °F 30.26 in Calm     97% 0.00 in meteobridge W/m2
04:21 41.7 °F 41.0 °F 30.26 in Calm     97% 0.00 in meteobridge W/m2
04:26 41.5 °F 40.8 °F 30.27 in Calm     97% 0.00 in meteobridge W/m2
04:31 41.4 °F 40.6 °F 30.27 in Calm     97% 0.00 in meteobridge W/m2
04:36 41.2 °F 40.5 °F 30.27 in Calm     97% 0.00 in meteobridge W/m2
04:41 41.2 °F 40.5 °F 30.27 in Calm     97% 0.00 in meteobridge W/m2
04:46 41.0 °F 40.3 °F 30.27 in Calm     97% 0.00 in meteobridge W/m2
04:51 40.8 °F 40.1 °F 30.27 in Calm     97% 0.00 in meteobridge W/m2
04:56 40.8 °F 40.1 °F 30.27 in Calm     97% 0.00 in meteobridge W/m2
05:01 40.6 °F 39.9 °F 30.27 in Calm     97% 0.00 in meteobridge W/m2
05:06 40.6 °F 39.9 °F 30.27 in Calm     97% 0.00 in meteobridge W/m2
05:11 40.6 °F 39.9 °F 30.27 in Calm     97% 0.00 in meteobridge W/m2
05:16 40.6 °F 39.9 °F 30.27 in Calm     97% 0.00 in meteobridge W/m2
05:21 40.6 °F 39.9 °F 30.27 in Calm     97% 0.00 in meteobridge W/m2
05:26 40.6 °F 39.9 °F 30.27 in Calm     97% 0.00 in meteobridge W/m2
05:31 40.5 °F 39.7 °F 30.27 in Calm     97% 0.00 in meteobridge W/m2
05:36 40.5 °F 39.7 °F 30.27 in Calm     97% 0.00 in meteobridge W/m2
05:41 40.3 °F 39.6 °F 30.27 in Calm     97% 0.00 in meteobridge W/m2
05:46 40.3 °F 39.6 °F 30.27 in Calm     97% 0.00 in meteobridge W/m2
05:51 40.3 °F 39.6 °F 30.27 in Calm     97% 0.00 in meteobridge W/m2
05:56 39.9 °F 39.2 °F 30.27 in Calm     97% 0.00 in meteobridge W/m2
06:01 40.3 °F 39.6 °F 30.27 in Calm     97% 0.00 in meteobridge W/m2
06:06 40.1 °F 39.4 °F 30.27 in Calm     97% 0.00 in meteobridge W/m2
06:11 39.9 °F 39.2 °F 30.27 in Calm     97% 0.00 in meteobridge W/m2
06:16 39.9 °F 39.2 °F 30.27 in Calm     97% 0.00 in meteobridge W/m2
06:21 39.7 °F 39.0 °F 30.27 in Calm     97% 0.00 in meteobridge W/m2
06:26 39.6 °F 38.8 °F 30.27 in Calm     97% 0.00 in meteobridge W/m2
06:31 39.4 °F 38.7 °F 30.27 in Calm     97% 0.00 in meteobridge W/m2
06:36 39.2 °F 38.5 °F 30.27 in Calm     97% 0.00 in meteobridge W/m2
06:42 39.0 °F 38.3 °F 30.27 in Calm     97% 0.00 in meteobridge W/m2
06:47 39.0 °F 38.3 °F 30.27 in Calm     97% 0.00 in meteobridge W/m2
06:52 39.0 °F 38.3 °F 30.26 in Calm     97% 0.00 in meteobridge W/m2
06:57 38.8 °F 38.1 °F 30.27 in Calm     97% 0.00 in meteobridge W/m2
07:02 38.7 °F 37.9 °F 30.26 in Calm     97% 0.00 in meteobridge W/m2
07:07 38.5 °F 37.8 °F 30.27 in Calm     97% 0.00 in meteobridge W/m2
07:12 38.7 °F 37.9 °F 30.27 in Calm     97% 0.00 in meteobridge W/m2
07:17 38.5 °F 37.8 °F 30.27 in Calm     97% 0.00 in meteobridge W/m2
07:22 38.7 °F 37.9 °F 30.27 in Calm     97% 0.00 in meteobridge W/m2
07:27 38.7 °F 37.9 °F 30.26 in Calm     97% 0.00 in meteobridge W/m2
07:32 38.8 °F 38.1 °F 30.26 in Calm     97% 0.00 in meteobridge W/m2
07:37 38.8 °F 38.1 °F 30.26 in Calm     97% 0.00 in meteobridge W/m2
07:42 38.8 °F 38.1 °F 30.27 in Calm     97% 0.00 in meteobridge W/m2
07:47 38.8 °F 38.1 °F 30.27 in Calm     97% 0.00 in meteobridge W/m2
07:52 39.0 °F 38.3 °F 30.27 in Calm     97% 0.00 in meteobridge W/m2
07:57 39.0 °F 38.3 °F 30.27 in Calm     97% 0.00 in meteobridge W/m2
08:02 39.4 °F 38.7 °F 30.27 in Calm     97% 0.00 in meteobridge W/m2
08:07 39.6 °F 38.8 °F 30.27 in Calm     97% 0.00 in meteobridge W/m2
08:12 40.3 °F 39.6 °F 30.26 in Calm     97% 0.00 in meteobridge W/m2
08:17 40.5 °F 39.7 °F 30.27 in Calm     97% 0.00 in meteobridge W/m2
08:22 40.8 °F 40.1 °F 30.27 in Calm     97% 0.00 in meteobridge W/m2
08:27 41.2 °F 40.5 °F 30.27 in Calm     97% 0.00 in meteobridge W/m2
08:32 41.9 °F 41.2 °F 30.27 in Calm     97% 0.00 in meteobridge W/m2
08:37 42.3 °F 41.5 °F 30.27 in Calm     97% 0.00 in meteobridge W/m2
08:42 43.2 °F 42.4 °F 30.27 in Calm     97% 0.00 in meteobridge W/m2
08:48 43.9 °F 43.2 °F 30.27 in Calm     97% 0.00 in meteobridge W/m2
08:53 45.0 °F 44.2 °F 30.27 in Calm     97% 0.00 in meteobridge W/m2
08:58 45.3 °F 44.6 °F 30.27 in Calm     97% 0.00 in meteobridge W/m2
09:03 46.4 °F 45.3 °F 30.27 in Calm     96% 0.00 in meteobridge W/m2
09:08 48.2 °F 46.8 °F 30.27 in Calm     95% 0.00 in meteobridge W/m2
09:13 49.5 °F 47.5 °F 30.27 in Calm     93% 0.00 in meteobridge W/m2
09:18 50.5 °F 48.0 °F 30.27 in Calm     91% 0.00 in meteobridge W/m2
09:23 51.1 °F 48.0 °F 30.27 in Calm     89% 0.00 in meteobridge W/m2
09:28 51.4 °F 48.0 °F 30.27 in Calm     88% 0.00 in meteobridge W/m2
09:33 52.0 °F 48.2 °F 30.27 in Calm     87% 0.00 in meteobridge W/m2
09:38 52.2 °F 48.0 °F 30.27 in SSE 2.0 mph 2.0 mph 86% 0.00 in meteobridge W/m2
09:43 52.9 °F 48.7 °F 30.27 in Calm     86% 0.00 in meteobridge W/m2
09:48 53.2 °F 48.9 °F 30.26 in Calm     85% 0.00 in meteobridge W/m2
09:53 53.6 °F 48.9 °F 30.27 in Calm     84% 0.00 in meteobridge W/m2
09:58 54.3 °F 49.3 °F 30.27 in Calm     83% 0.00 in meteobridge W/m2
10:03 54.7 °F 49.3 °F 30.27 in Calm     82% 0.00 in meteobridge W/m2
10:08 55.4 °F 48.9 °F 30.27 in Calm     79% 0.00 in meteobridge W/m2
10:13 55.9 °F 49.5 °F 30.27 in SW 4.0 mph 8.0 mph 79% 0.00 in meteobridge W/m2
10:18 56.8 °F 48.9 °F 30.27 in SW 4.9 mph 7.0 mph 75% 0.00 in meteobridge W/m2
10:23 57.0 °F 47.7 °F 30.26 in Calm   6.0 mph 71% 0.00 in meteobridge W/m2
10:28 57.7 °F 48.4 °F 30.26 in Calm   5.0 mph 71% 0.00 in meteobridge W/m2
10:33 58.3 °F 48.6 °F 30.26 in South 0.9 mph 3.0 mph 70% 0.00 in meteobridge W/m2
10:38 58.5 °F 49.5 °F 30.26 in SSW 2.9 mph 3.0 mph 72% 0.00 in meteobridge W/m2
10:43 59.0 °F 48.4 °F 30.26 in South 2.0 mph 4.0 mph 68% 0.00 in meteobridge W/m2
10:48 59.4 °F 47.7 °F 30.26 in South 2.0 mph 5.0 mph 65% 0.00 in meteobridge W/m2
10:53 59.7 °F 48.7 °F 30.26 in SW 2.0 mph 3.0 mph 67% 0.00 in meteobridge W/m2
10:58 59.9 °F 48.6 °F 30.26 in SW 0.9 mph 6.0 mph 66% 0.00 in meteobridge W/m2
11:03 59.9 °F 50.5 °F 30.26 in WSW 2.9 mph 3.0 mph 71% 0.00 in meteobridge W/m2
11:08 60.3 °F 50.0 °F 30.26 in SW 6.0 mph 6.0 mph 69% 0.00 in meteobridge W/m2
11:13 60.4 °F 49.5 °F 30.26 in South 2.0 mph 4.0 mph 67% 0.00 in meteobridge W/m2
11:19 61.2 °F 49.6 °F 30.26 in WNW 2.0 mph 7.0 mph 66% 0.00 in meteobridge W/m2
11:24 61.5 °F 49.6 °F 30.26 in SW 4.0 mph 9.0 mph 65% 0.00 in meteobridge W/m2
11:29 61.9 °F 48.7 °F 30.26 in SSW 4.0 mph 11.0 mph 62% 0.00 in meteobridge W/m2
11:34 62.2 °F 49.5 °F 30.26 in SW 4.0 mph 6.0 mph 63% 0.00 in meteobridge W/m2
11:39 62.6 °F 49.5 °F 30.26 in West 0.9 mph 4.0 mph 62% 0.00 in meteobridge W/m2
11:44 63.0 °F 49.3 °F 30.25 in SW 4.0 mph 6.0 mph 61% 0.00 in meteobridge W/m2
11:49 63.0 °F 49.8 °F 30.25 in SW 6.0 mph 6.0 mph 62% 0.00 in meteobridge W/m2
11:54 63.3 °F 48.4 °F 30.24 in WNW 2.0 mph 8.0 mph 58% 0.00 in meteobridge W/m2
11:59 64.0 °F 48.6 °F 30.24 in SW 2.9 mph 6.0 mph 57% 0.00 in meteobridge W/m2
12:04 63.7 °F 48.2 °F 30.24 in SSW 2.9 mph 8.0 mph 57% 0.00 in meteobridge W/m2
12:09 64.2 °F 49.1 °F 30.24 in South 0.9 mph 8.0 mph 58% 0.00 in meteobridge W/m2
12:14 65.3 °F 49.6 °F 30.23 in SW 9.0 mph 9.0 mph 57% 0.00 in meteobridge W/m2
12:19 64.9 °F 48.9 °F 30.23 in SW 2.9 mph 9.0 mph 56% 0.00 in meteobridge W/m2
12:24 64.8 °F 48.2 °F 30.23 in SSW 2.9 mph 4.0 mph 55% 0.00 in meteobridge W/m2
12:29 65.7 °F 50.9 °F 30.22 in SSW 2.0 mph 3.0 mph 59% 0.00 in meteobridge W/m2
12:34 65.1 °F 47.5 °F 30.22 in SSW 2.0 mph 10.0 mph 53% 0.00 in meteobridge W/m2
12:39 65.5 °F 48.9 °F 30.22 in SW 2.9 mph 7.0 mph 55% 0.00 in meteobridge W/m2
12:44 65.5 °F 47.8 °F 30.22 in SSE 6.0 mph 12.0 mph 53% 0.00 in meteobridge W/m2
12:49 65.7 °F 49.1 °F 30.22 in WNW 6.9 mph 9.0 mph 55% 0.00 in meteobridge W/m2
12:52 66.0 °F 48.9 °F 30.22 in WSW 4.0 mph 7.0 mph 54% 0.00 in meteobridge W/m2
12:57 65.8 °F 48.7 °F 30.22 in WNW 2.0 mph 5.0 mph 54% 0.00 in meteobridge W/m2
13:02 66.7 °F 49.6 °F 30.21 in SW 0.9 mph 7.0 mph 54% 0.00 in meteobridge W/m2
13:07 66.6 °F 50.4 °F 30.21 in NW 2.0 mph 5.0 mph 56% 0.00 in meteobridge W/m2
13:12 67.1 °F 48.9 °F 30.21 in SW 2.0 mph 4.0 mph 52% 0.00 in meteobridge W/m2
13:17 67.3 °F 49.1 °F 30.20 in SSW 0.9 mph 4.0 mph 52% 0.00 in meteobridge W/m2
13:22 67.3 °F 49.6 °F 30.20 in WSW 4.9 mph 6.0 mph 53% 0.00 in meteobridge W/m2
13:27 67.3 °F 49.1 °F 30.19 in SSW 2.9 mph 8.0 mph 52% 0.00 in meteobridge W/m2
13:32 67.1 °F 49.5 °F 30.19 in NNW 2.9 mph 7.0 mph 53% 0.00 in meteobridge W/m2
13:37 67.6 °F 49.5 °F 30.19 in West 6.0 mph 7.0 mph 52% 0.00 in meteobridge W/m2
13:42 67.8 °F 49.1 °F 30.19 in SSW 2.9 mph 6.0 mph 51% 0.00 in meteobridge W/m2
13:47 67.8 °F 50.0 °F 30.19 in SW 0.9 mph 6.0 mph 53% 0.00 in meteobridge W/m2
13:52 68.0 °F 49.6 °F 30.18 in SSW 2.0 mph 5.0 mph 52% 0.00 in meteobridge W/m2
13:57 67.8 °F 49.6 °F 30.18 in South 6.0 mph 7.0 mph 52% 0.00 in meteobridge W/m2
14:02 68.4 °F 51.1 °F 30.18 in Calm   6.0 mph 54% 0.00 in meteobridge W/m2
14:07 68.4 °F 49.5 °F 30.17 in Calm   8.0 mph 51% 0.00 in meteobridge W/m2
14:12 68.2 °F 48.4 °F 30.17 in SSW 6.9 mph 7.0 mph 49% 0.00 in meteobridge W/m2
14:17 67.8 °F 48.6 °F 30.17 in SSW 2.0 mph 5.0 mph 50% 0.00 in meteobridge W/m2
14:22 68.7 °F 49.8 °F 30.16 in SSW 2.0 mph 7.0 mph 51% 0.00 in meteobridge W/m2
14:24 68.7 °F 49.3 °F 30.16 in South 2.9 mph 7.0 mph 50% 0.00 in meteobridge W/m2
14:29 68.9 °F 50.0 °F 30.16 in SW 0.9 mph 5.0 mph 51% 0.00 in meteobridge W/m2
14:34 68.4 °F 49.5 °F 30.16 in Calm   4.0 mph 51% 0.00 in meteobridge W/m2
14:39 68.5 °F 48.6 °F 30.15 in WSW 6.0 mph 11.0 mph 49% 0.00 in meteobridge W/m2
14:44 68.4 °F 49.5 °F 30.15 in SSW 6.9 mph 8.0 mph 51% 0.00 in meteobridge W/m2
14:49 69.1 °F 49.6 °F 30.15 in SSW 4.0 mph 8.0 mph 50% 0.00 in meteobridge W/m2
14:54 69.3 °F 50.4 °F 30.15 in SW 2.9 mph 7.0 mph 51% 0.00 in meteobridge W/m2
14:59 68.9 °F 48.9 °F 30.14 in SE 6.9 mph 7.0 mph 49% 0.00 in meteobridge W/m2
15:04 68.7 °F 49.8 °F 30.14 in WSW 2.9 mph 7.0 mph 51% 0.00 in meteobridge W/m2
15:09 68.9 °F 49.5 °F 30.14 in SSW 0.9 mph 10.0 mph 50% 0.00 in meteobridge W/m2
15:14 68.7 °F 48.7 °F 30.14 in ESE 2.9 mph 11.0 mph 49% 0.00 in meteobridge W/m2
15:20 69.1 °F 50.2 °F 30.14 in ESE 0.9 mph 6.0 mph 51% 0.00 in meteobridge W/m2
15:25 69.3 °F 49.3 °F 30.14 in Calm   7.0 mph 49% 0.00 in meteobridge W/m2
15:30 69.4 °F 49.5 °F 30.14 in Calm   5.0 mph 49% 0.00 in meteobridge W/m2
15:35 69.4 °F 49.5 °F 30.14 in SW 4.0 mph 7.0 mph 49% 0.00 in meteobridge W/m2
15:40 69.4 °F 50.5 °F 30.14 in SE 4.9 mph 8.0 mph 51% 0.00 in meteobridge W/m2
15:45 69.4 °F 50.0 °F 30.13 in SSE 2.0 mph 5.0 mph 50% 0.00 in meteobridge W/m2
15:50 69.4 °F 50.0 °F 30.13 in SE 0.9 mph 7.0 mph 50% 0.00 in meteobridge W/m2
15:55 69.4 °F 50.0 °F 30.13 in Calm   4.0 mph 50% 0.00 in meteobridge W/m2
16:00 69.3 °F 50.4 °F 30.13 in WSW 2.0 mph 4.0 mph 51% 0.00 in meteobridge W/m2
16:05 69.1 °F 50.2 °F 30.13 in SW 2.9 mph 4.0 mph 51% 0.00 in meteobridge W/m2
16:10 68.7 °F 49.8 °F 30.13 in South 2.9 mph 9.0 mph 51% 0.00 in meteobridge W/m2
16:15 68.5 °F 49.6 °F 30.13 in SW 2.9 mph 6.0 mph 51% 0.00 in meteobridge W/m2
16:20 68.5 °F 50.2 °F 30.13 in Calm   2.0 mph 52% 0.00 in meteobridge W/m2
16:25 68.9 °F 50.0 °F 30.12 in South 0.9 mph 4.0 mph 51% 0.00 in meteobridge W/m2
16:30 68.7 °F 50.9 °F 30.12 in Calm   3.0 mph 53% 0.00 in meteobridge W/m2
16:35 68.5 °F 50.2 °F 30.12 in Calm   4.0 mph 52% 0.00 in meteobridge W/m2
16:40 68.2 °F 50.4 °F 30.12 in Calm   4.0 mph 53% 0.00 in meteobridge W/m2
16:45 68.4 °F 51.1 °F 30.12 in Calm   2.0 mph 54% 0.00 in meteobridge W/m2
16:50 68.2 °F 51.4 °F 30.12 in South 2.0 mph 4.0 mph 55% 0.00 in meteobridge W/m2
16:55 67.8 °F 50.5 °F 30.12 in SSW 2.0 mph 6.0 mph 54% 0.00 in meteobridge W/m2
17:00 67.6 °F 50.9 °F 30.12 in SSW 0.9 mph 7.0 mph 55% 0.00 in meteobridge W/m2
17:05 67.3 °F 51.4 °F 30.12 in SSE 4.0 mph 7.0 mph 57% 0.00 in meteobridge W/m2
17:10 66.7 °F 51.1 °F 30.12 in South 2.9 mph 4.0 mph 57% 0.00 in meteobridge W/m2
17:15 66.7 °F 51.1 °F 30.12 in Calm   2.0 mph 57% 0.00 in meteobridge W/m2
17:20 66.4 °F 51.1 °F 30.12 in SSW 2.9 mph 8.0 mph 58% 0.00 in meteobridge W/m2
17:26 65.8 °F 50.7 °F 30.12 in SSW 4.9 mph 5.0 mph 58% 0.00 in meteobridge W/m2
17:31 65.5 °F 50.7 °F 30.12 in SSW 4.0 mph 4.0 mph 59% 0.00 in meteobridge W/m2
17:36 65.3 °F 51.1 °F 30.12 in SW 2.9 mph 4.0 mph 60% 0.00 in meteobridge W/m2
17:41 64.6 °F 50.9 °F 30.12 in Calm     61% 0.00 in meteobridge W/m2
17:46 64.0 °F 50.7 °F 30.12 in Calm   3.0 mph 62% 0.00 in meteobridge W/m2
17:51 63.7 °F 51.3 °F 30.12 in Calm   2.0 mph 64% 0.00 in meteobridge W/m2
17:56 63.0 °F 51.1 °F 30.11 in Calm     65% 0.00 in meteobridge W/m2
18:01 62.4 °F 50.9 °F 30.11 in Calm   3.0 mph 66% 0.00 in meteobridge W/m2
18:06 62.1 °F 50.5 °F 30.11 in Calm   3.0 mph 66% 0.00 in meteobridge W/m2
18:11 61.9 °F 50.7 °F 30.11 in Calm   3.0 mph 67% 0.00 in meteobridge W/m2
18:16 61.9 °F 50.7 °F 30.11 in Calm   2.0 mph 67% 0.00 in meteobridge W/m2
18:21 61.2 °F 50.5 °F 30.12 in Calm   3.0 mph 68% 0.00 in meteobridge W/m2
18:26 60.3 °F 50.9 °F 30.12 in Calm     71% 0.00 in meteobridge W/m2
18:31 59.5 °F 50.9 °F 30.12 in Calm     73% 0.00 in meteobridge W/m2
18:36 58.8 °F 50.5 °F 30.12 in Calm     74% 0.00 in meteobridge W/m2
18:41 58.3 °F 50.4 °F 30.12 in Calm     75% 0.00 in meteobridge W/m2
18:46 57.7 °F 50.2 °F 30.12 in Calm     76% 0.00 in meteobridge W/m2
18:51 57.4 °F 50.2 °F 30.12 in Calm     77% 0.00 in meteobridge W/m2
18:56 57.0 °F 50.2 °F 30.12 in Calm     78% 0.00 in meteobridge W/m2
19:01 57.0 °F 50.2 °F 30.12 in Calm     78% 0.00 in meteobridge W/m2
19:06 56.8 °F 50.0 °F 30.12 in Calm     78% 0.00 in meteobridge W/m2
19:11 56.8 °F 50.4 °F 30.12 in Calm     79% 0.00 in meteobridge W/m2
19:16 56.5 °F 50.0 °F 30.13 in Calm     79% 0.00 in meteobridge W/m2
19:21 56.3 °F 49.8 °F 30.13 in Calm     79% 0.00 in meteobridge W/m2
19:26 56.1 °F 50.0 °F 30.13 in Calm     80% 0.00 in meteobridge W/m2
19:32 55.9 °F 49.8 °F 30.13 in Calm     80% 0.00 in meteobridge W/m2
19:37 56.1 °F 49.6 °F 30.13 in Calm   2.0 mph 79% 0.00 in meteobridge W/m2
19:42 56.3 °F 50.2 °F 30.13 in Calm   2.0 mph 80% 0.00 in meteobridge W/m2
Atglen Borough, Pennsylvania, USA
Compliments of Weather Underground - 2.25 mb